sensor_id;sensor_type;location;lat;lon;timestamp;P1;durP1;ratioP1;P2;durP2;ratioP2
79052;SDS011;68451;49.510;6.026;2023-08-01T00:01:46;3.65;;;2.30;;
79052;SDS011;68451;49.510;6.026;2023-08-01T00:04:11;6.95;;;2.58;;
79052;SDS011;68451;49.510;6.026;2023-08-01T00:06:36;4.03;;;1.98;;
79052;SDS011;68451;49.510;6.026;2023-08-01T00:09:02;3.33;;;1.83;;
79052;SDS011;68451;49.510;6.026;2023-08-01T00:11:27;5.07;;;2.25;;
79052;SDS011;68451;49.510;6.026;2023-08-01T00:13:53;3.72;;;1.95;;
79052;SDS011;68451;49.510;6.026;2023-08-01T00:16:18;2.35;;;2.05;;
79052;SDS011;68451;49.510;6.026;2023-08-01T00:18:44;4.30;;;1.67;;
79052;SDS011;68451;49.510;6.026;2023-08-01T00:21:09;2.20;;;1.45;;
79052;SDS011;68451;49.510;6.026;2023-08-01T00:23:36;2.00;;;1.55;;
79052;SDS011;68451;49.510;6.026;2023-08-01T00:26:02;1.35;;;1.05;;
79052;SDS011;68451;49.510;6.026;2023-08-01T00:28:29;3.53;;;1.40;;
79052;SDS011;68451;49.510;6.026;2023-08-01T00:33:36;0.95;;;0.80;;
79052;SDS011;68451;49.510;6.026;2023-08-01T00:36:01;1.38;;;0.93;;
79052;SDS011;68451;49.510;6.026;2023-08-01T00:38:27;2.33;;;1.50;;
79052;SDS011;68451;49.510;6.026;2023-08-01T00:40:53;1.75;;;1.00;;
79052;SDS011;68451;49.510;6.026;2023-08-01T00:43:18;1.98;;;1.25;;
79052;SDS011;68451;49.510;6.026;2023-08-01T00:45:44;4.63;;;1.52;;
79052;SDS011;68451;49.510;6.026;2023-08-01T00:48:10;2.85;;;1.27;;
79052;SDS011;68451;49.510;6.026;2023-08-01T00:50:36;2.20;;;1.90;;
79052;SDS011;68451;49.510;6.026;2023-08-01T00:53:01;1.73;;;1.20;;
79052;SDS011;68451;49.510;6.026;2023-08-01T00:55:27;2.97;;;1.88;;
79052;SDS011;68451;49.510;6.026;2023-08-01T00:57:54;3.92;;;2.47;;
79052;SDS011;68451;49.510;6.026;2023-08-01T01:00:20;2.53;;;2.10;;
79052;SDS011;68451;49.510;6.026;2023-08-01T01:02:45;4.35;;;2.75;;
79052;SDS011;68451;49.510;6.026;2023-08-01T01:05:11;4.72;;;3.00;;
79052;SDS011;68451;49.510;6.026;2023-08-01T01:07:39;5.15;;;2.70;;
79052;SDS011;68451;49.510;6.026;2023-08-01T01:10:05;5.95;;;2.60;;
79052;SDS011;68451;49.510;6.026;2023-08-01T01:12:30;11.63;;;3.13;;
79052;SDS011;68451;49.510;6.026;2023-08-01T01:14:56;6.10;;;2.97;;
79052;SDS011;68451;49.510;6.026;2023-08-01T01:17:21;4.63;;;2.95;;
79052;SDS011;68451;49.510;6.026;2023-08-01T01:19:47;4.95;;;2.88;;
79052;SDS011;68451;49.510;6.026;2023-08-01T01:22:12;4.82;;;2.85;;
79052;SDS011;68451;49.510;6.026;2023-08-01T01:24:39;4.28;;;2.38;;
79052;SDS011;68451;49.510;6.026;2023-08-01T01:27:06;4.25;;;2.60;;
79052;SDS011;68451;49.510;6.026;2023-08-01T01:29:33;4.18;;;3.08;;
79052;SDS011;68451;49.510;6.026;2023-08-01T01:31:59;3.65;;;2.67;;
79052;SDS011;68451;49.510;6.026;2023-08-01T01:34:26;2.47;;;2.10;;
79052;SDS011;68451;49.510;6.026;2023-08-01T01:36:53;3.88;;;2.47;;
79052;SDS011;68451;49.510;6.026;2023-08-01T01:39:18;4.72;;;3.13;;
79052;SDS011;68451;49.510;6.026;2023-08-01T01:41:44;5.60;;;2.55;;
79052;SDS011;68451;49.510;6.026;2023-08-01T01:44:09;2.58;;;1.98;;
79052;SDS011;68451;49.510;6.026;2023-08-01T01:46:35;3.55;;;2.17;;
79052;SDS011;68451;49.510;6.026;2023-08-01T01:49:00;4.97;;;1.80;;
79052;SDS011;68451;49.510;6.026;2023-08-01T01:51:26;2.40;;;1.77;;
79052;SDS011;68451;49.510;6.026;2023-08-01T01:53:53;2.45;;;1.70;;
79052;SDS011;68451;49.510;6.026;2023-08-01T01:56:18;2.45;;;1.35;;
79052;SDS011;68451;49.510;6.026;2023-08-01T01:58:44;3.50;;;1.67;;
79052;SDS011;68451;49.510;6.026;2023-08-01T02:01:09;3.17;;;1.40;;
79052;SDS011;68451;49.510;6.026;2023-08-01T02:03:35;3.80;;;1.60;;
79052;SDS011;68451;49.510;6.026;2023-08-01T02:06:01;2.38;;;1.63;;
79052;SDS011;68451;49.510;6.026;2023-08-01T02:08:28;3.40;;;1.60;;
79052;SDS011;68451;49.510;6.026;2023-08-01T02:10:54;2.40;;;1.73;;
79052;SDS011;68451;49.510;6.026;2023-08-01T02:13:22;2.58;;;1.45;;
79052;SDS011;68451;49.510;6.026;2023-08-01T02:15:49;2.03;;;1.45;;
79052;SDS011;68451;49.510;6.026;2023-08-01T02:18:14;2.75;;;1.60;;
79052;SDS011;68451;49.510;6.026;2023-08-01T02:20:39;3.25;;;2.05;;
79052;SDS011;68451;49.510;6.026;2023-08-01T02:23:05;2.53;;;1.23;;
79052;SDS011;68451;49.510;6.026;2023-08-01T02:25:31;1.90;;;1.35;;
79052;SDS011;68451;49.510;6.026;2023-08-01T02:27:56;2.88;;;1.85;;
79052;SDS011;68451;49.510;6.026;2023-08-01T02:30:21;1.58;;;1.17;;
79052;SDS011;68451;49.510;6.026;2023-08-01T02:32:47;1.50;;;1.00;;
79052;SDS011;68451;49.510;6.026;2023-08-01T02:35:12;1.45;;;0.88;;
79052;SDS011;68451;49.510;6.026;2023-08-01T02:37:38;4.32;;;1.38;;
79052;SDS011;68451;49.510;6.026;2023-08-01T02:40:03;1.55;;;1.00;;
79052;SDS011;68451;49.510;6.026;2023-08-01T02:42:32;2.10;;;0.88;;
79052;SDS011;68451;49.510;6.026;2023-08-01T02:44:58;1.52;;;0.90;;
79052;SDS011;68451;49.510;6.026;2023-08-01T02:47:23;1.25;;;0.70;;
79052;SDS011;68451;49.510;6.026;2023-08-01T02:49:48;1.55;;;0.90;;
79052;SDS011;68451;49.510;6.026;2023-08-01T02:52:14;0.82;;;0.57;;
79052;SDS011;68451;49.510;6.026;2023-08-01T02:54:39;1.20;;;0.60;;
79052;SDS011;68451;49.510;6.026;2023-08-01T02:57:05;0.68;;;0.50;;
79052;SDS011;68451;49.510;6.026;2023-08-01T02:59:31;1.17;;;0.77;;
79052;SDS011;68451;49.510;6.026;2023-08-01T03:01:58;0.65;;;0.60;;
79052;SDS011;68451;49.510;6.026;2023-08-01T03:04:24;0.80;;;0.70;;
79052;SDS011;68451;49.510;6.026;2023-08-01T03:06:50;1.35;;;0.90;;
79052;SDS011;68451;49.510;6.026;2023-08-01T03:09:15;1.38;;;0.60;;
79052;SDS011;68451;49.510;6.026;2023-08-01T03:11:41;1.77;;;0.82;;
79052;SDS011;68451;49.510;6.026;2023-08-01T03:14:06;1.42;;;0.70;;
79052;SDS011;68451;49.510;6.026;2023-08-01T03:16:32;0.70;;;0.70;;
79052;SDS011;68451;49.510;6.026;2023-08-01T03:18:57;1.25;;;0.90;;
79052;SDS011;68451;49.510;6.026;2023-08-01T03:21:25;2.25;;;1.00;;
79052;SDS011;68451;49.510;6.026;2023-08-01T03:23:51;1.30;;;1.00;;
79052;SDS011;68451;49.510;6.026;2023-08-01T03:26:17;1.52;;;0.60;;
79052;SDS011;68451;49.510;6.026;2023-08-01T03:28:43;0.90;;;0.73;;
79052;SDS011;68451;49.510;6.026;2023-08-01T03:31:08;0.90;;;0.47;;
79052;SDS011;68451;49.510;6.026;2023-08-01T03:33:34;0.57;;;0.50;;
79052;SDS011;68451;49.510;6.026;2023-08-01T03:36:00;0.90;;;0.43;;
79052;SDS011;68451;49.510;6.026;2023-08-01T03:38:25;0.52;;;0.40;;
79052;SDS011;68451;49.510;6.026;2023-08-01T03:40:51;0.85;;;0.55;;
79052;SDS011;68451;49.510;6.026;2023-08-01T03:43:16;0.45;;;0.28;;
79052;SDS011;68451;49.510;6.026;2023-08-01T03:45:42;0.45;;;0.30;;
79052;SDS011;68451;49.510;6.026;2023-08-01T03:48:07;0.60;;;0.40;;
79052;SDS011;68451;49.510;6.026;2023-08-01T03:50:33;0.85;;;0.40;;
79052;SDS011;68451;49.510;6.026;2023-08-01T03:52:58;0.47;;;0.30;;
79052;SDS011;68451;49.510;6.026;2023-08-01T03:55:23;0.20;;;0.20;;
79052;SDS011;68451;49.510;6.026;2023-08-01T03:57:49;0.30;;;0.30;;
79052;SDS011;68451;49.510;6.026;2023-08-01T04:00:14;0.45;;;0.38;;
79052;SDS011;68451;49.510;6.026;2023-08-01T04:02:43;0.25;;;0.20;;
79052;SDS011;68451;49.510;6.026;2023-08-01T04:05:09;0.60;;;0.60;;
79052;SDS011;68451;49.510;6.026;2023-08-01T04:07:36;0.60;;;0.20;;
79052;SDS011;68451;49.510;6.026;2023-08-01T04:10:02;0.28;;;0.28;;
79052;SDS011;68451;49.510;6.026;2023-08-01T04:12:31;2.08;;;0.52;;
79052;SDS011;68451;49.510;6.026;2023-08-01T04:14:58;0.90;;;0.38;;
79052;SDS011;68451;49.510;6.026;2023-08-01T04:17:23;0.10;;;0.10;;
79052;SDS011;68451;49.510;6.026;2023-08-01T04:19:49;0.30;;;0.15;;
79052;SDS011;68451;49.510;6.026;2023-08-01T04:22:14;0.38;;;0.30;;
79052;SDS011;68451;49.510;6.026;2023-08-01T04:24:40;0.40;;;0.13;;
79052;SDS011;68451;49.510;6.026;2023-08-01T04:27:06;0.10;;;0.10;;
79052;SDS011;68451;49.510;6.026;2023-08-01T04:29:31;0.40;;;0.40;;
79052;SDS011;68451;49.510;6.026;2023-08-01T04:31:57;1.23;;;0.60;;
79052;SDS011;68451;49.510;6.026;2023-08-01T04:34:22;1.80;;;0.70;;
79052;SDS011;68451;49.510;6.026;2023-08-01T04:36:48;2.17;;;0.93;;
79052;SDS011;68451;49.510;6.026;2023-08-01T04:39:14;1.52;;;0.85;;
79052;SDS011;68451;49.510;6.026;2023-08-01T04:41:39;3.15;;;1.23;;
79052;SDS011;68451;49.510;6.026;2023-08-01T04:44:05;1.02;;;0.60;;
79052;SDS011;68451;49.510;6.026;2023-08-01T04:46:31;0.82;;;0.70;;
79052;SDS011;68451;49.510;6.026;2023-08-01T04:48:57;1.08;;;0.50;;
79052;SDS011;68451;49.510;6.026;2023-08-01T04:51:22;0.70;;;0.60;;
79052;SDS011;68451;49.510;6.026;2023-08-01T04:53:48;1.80;;;0.40;;
79052;SDS011;68451;49.510;6.026;2023-08-01T04:56:13;0.93;;;0.47;;
79052;SDS011;68451;49.510;6.026;2023-08-01T04:58:39;2.45;;;0.45;;
79052;SDS011;68451;49.510;6.026;2023-08-01T05:01:05;0.30;;;0.28;;
79052;SDS011;68451;49.510;6.026;2023-08-01T05:03:30;0.82;;;0.25;;
79052;SDS011;68451;49.510;6.026;2023-08-01T05:05:56;0.93;;;0.30;;
79052;SDS011;68451;49.510;6.026;2023-08-01T05:08:21;2.28;;;0.35;;
79052;SDS011;68451;49.510;6.026;2023-08-01T05:10:47;0.55;;;0.40;;
79052;SDS011;68451;49.510;6.026;2023-08-01T05:13:12;0.40;;;0.40;;
79052;SDS011;68451;49.510;6.026;2023-08-01T05:15:38;0.73;;;0.50;;
79052;SDS011;68451;49.510;6.026;2023-08-01T05:18:03;0.63;;;0.47;;
79052;SDS011;68451;49.510;6.026;2023-08-01T05:20:29;1.45;;;0.75;;
79052;SDS011;68451;49.510;6.026;2023-08-01T05:22:57;1.13;;;0.63;;
79052;SDS011;68451;49.510;6.026;2023-08-01T05:25:22;1.13;;;0.45;;
79052;SDS011;68451;49.510;6.026;2023-08-01T05:27:48;6.13;;;0.80;;
79052;SDS011;68451;49.510;6.026;2023-08-01T05:30:14;0.30;;;0.30;;
79052;SDS011;68451;49.510;6.026;2023-08-01T05:32:39;0.52;;;0.52;;
79052;SDS011;68451;49.510;6.026;2023-08-01T05:35:05;0.90;;;0.50;;
79052;SDS011;68451;49.510;6.026;2023-08-01T05:37:32;0.70;;;0.40;;
79052;SDS011;68451;49.510;6.026;2023-08-01T05:39:57;0.73;;;0.30;;
79052;SDS011;68451;49.510;6.026;2023-08-01T05:42:23;1.15;;;0.40;;
79052;SDS011;68451;49.510;6.026;2023-08-01T05:44:48;0.98;;;0.50;;
79052;SDS011;68451;49.510;6.026;2023-08-01T05:47:14;0.85;;;0.45;;
79052;SDS011;68451;49.510;6.026;2023-08-01T05:49:40;0.95;;;0.30;;
79052;SDS011;68451;49.510;6.026;2023-08-01T05:52:06;3.58;;;0.70;;
79052;SDS011;68451;49.510;6.026;2023-08-01T05:54:32;3.63;;;1.40;;
79052;SDS011;68451;49.510;6.026;2023-08-01T05:56:58;1.77;;;0.75;;
79052;SDS011;68451;49.510;6.026;2023-08-01T05:59:23;1.95;;;0.85;;
79052;SDS011;68451;49.510;6.026;2023-08-01T06:01:49;1.75;;;1.48;;
79052;SDS011;68451;49.510;6.026;2023-08-01T06:04:14;3.00;;;0.90;;
79052;SDS011;68451;49.510;6.026;2023-08-01T06:06:40;1.13;;;0.80;;
79052;SDS011;68451;49.510;6.026;2023-08-01T06:09:06;0.77;;;0.63;;
79052;SDS011;68451;49.510;6.026;2023-08-01T06:11:31;0.93;;;0.70;;
79052;SDS011;68451;49.510;6.026;2023-08-01T06:13:58;2.72;;;1.63;;
79052;SDS011;68451;49.510;6.026;2023-08-01T06:16:24;2.85;;;1.60;;
79052;SDS011;68451;49.510;6.026;2023-08-01T06:18:49;5.22;;;1.55;;
79052;SDS011;68451;49.510;6.026;2023-08-01T06:21:15;4.30;;;1.75;;
79052;SDS011;68451;49.510;6.026;2023-08-01T06:23:41;7.18;;;2.08;;
79052;SDS011;68451;49.510;6.026;2023-08-01T06:26:06;7.30;;;2.80;;
79052;SDS011;68451;49.510;6.026;2023-08-01T06:28:32;4.50;;;2.65;;
79052;SDS011;68451;49.510;6.026;2023-08-01T06:30:57;5.22;;;2.00;;
79052;SDS011;68451;49.510;6.026;2023-08-01T06:33:23;4.32;;;1.60;;
79052;SDS011;68451;49.510;6.026;2023-08-01T06:35:48;3.75;;;1.85;;
79052;SDS011;68451;49.510;6.026;2023-08-01T06:38:14;5.03;;;2.20;;
79052;SDS011;68451;49.510;6.026;2023-08-01T06:40:39;3.85;;;1.60;;
79052;SDS011;68451;49.510;6.026;2023-08-01T06:43:05;3.25;;;1.63;;
79052;SDS011;68451;49.510;6.026;2023-08-01T06:45:30;2.28;;;1.50;;
79052;SDS011;68451;49.510;6.026;2023-08-01T06:47:56;3.28;;;2.38;;
79052;SDS011;68451;49.510;6.026;2023-08-01T06:50:21;3.55;;;1.60;;
79052;SDS011;68451;49.510;6.026;2023-08-01T06:52:47;3.63;;;1.60;;
79052;SDS011;68451;49.510;6.026;2023-08-01T06:55:12;3.10;;;1.70;;
79052;SDS011;68451;49.510;6.026;2023-08-01T06:57:38;4.65;;;2.10;;
79052;SDS011;68451;49.510;6.026;2023-08-01T07:00:03;2.72;;;2.17;;
79052;SDS011;68451;49.510;6.026;2023-08-01T07:02:29;4.00;;;1.95;;
79052;SDS011;68451;49.510;6.026;2023-08-01T07:04:55;4.32;;;2.05;;
79052;SDS011;68451;49.510;6.026;2023-08-01T07:07:20;2.63;;;2.20;;
79052;SDS011;68451;49.510;6.026;2023-08-01T07:09:46;3.78;;;2.30;;
79052;SDS011;68451;49.510;6.026;2023-08-01T07:12:11;4.30;;;2.30;;
79052;SDS011;68451;49.510;6.026;2023-08-01T07:14:36;4.78;;;2.25;;
79052;SDS011;68451;49.510;6.026;2023-08-01T07:17:02;4.32;;;2.05;;
79052;SDS011;68451;49.510;6.026;2023-08-01T07:19:27;3.10;;;1.90;;
79052;SDS011;68451;49.510;6.026;2023-08-01T07:21:53;2.78;;;1.60;;
79052;SDS011;68451;49.510;6.026;2023-08-01T07:24:18;3.47;;;2.08;;
79052;SDS011;68451;49.510;6.026;2023-08-01T07:26:44;3.78;;;2.47;;
79052;SDS011;68451;49.510;6.026;2023-08-01T07:29:09;4.43;;;2.33;;
79052;SDS011;68451;49.510;6.026;2023-08-01T07:31:36;3.92;;;1.73;;
79052;SDS011;68451;49.510;6.026;2023-08-01T07:34:02;3.47;;;2.60;;
79052;SDS011;68451;49.510;6.026;2023-08-01T07:36:28;4.30;;;2.55;;
79052;SDS011;68451;49.510;6.026;2023-08-01T07:38:53;6.05;;;2.30;;
79052;SDS011;68451;49.510;6.026;2023-08-01T07:41:21;4.65;;;1.83;;
79052;SDS011;68451;49.510;6.026;2023-08-01T07:43:46;3.85;;;2.22;;
79052;SDS011;68451;49.510;6.026;2023-08-01T07:46:12;2.97;;;2.15;;
79052;SDS011;68451;49.510;6.026;2023-08-01T07:48:38;4.10;;;1.80;;
79052;SDS011;68451;49.510;6.026;2023-08-01T07:51:03;2.85;;;1.67;;
79052;SDS011;68451;49.510;6.026;2023-08-01T07:53:30;7.40;;;2.75;;
79052;SDS011;68451;49.510;6.026;2023-08-01T07:55:56;4.60;;;2.50;;
79052;SDS011;68451;49.510;6.026;2023-08-01T07:58:22;4.25;;;2.22;;
79052;SDS011;68451;49.510;6.026;2023-08-01T08:00:48;3.92;;;2.28;;
79052;SDS011;68451;49.510;6.026;2023-08-01T08:03:13;9.55;;;2.88;;
79052;SDS011;68451;49.510;6.026;2023-08-01T08:05:39;2.60;;;2.20;;
79052;SDS011;68451;49.510;6.026;2023-08-01T08:08:05;5.82;;;2.00;;
79052;SDS011;68451;49.510;6.026;2023-08-01T08:10:31;3.40;;;2.00;;
79052;SDS011;68451;49.510;6.026;2023-08-01T08:12:56;3.30;;;2.25;;
79052;SDS011;68451;49.510;6.026;2023-08-01T08:15:22;5.82;;;2.65;;
79052;SDS011;68451;49.510;6.026;2023-08-01T08:17:48;3.60;;;2.15;;
79052;SDS011;68451;49.510;6.026;2023-08-01T08:20:14;3.90;;;2.10;;
79052;SDS011;68451;49.510;6.026;2023-08-01T08:22:40;5.40;;;2.67;;
79052;SDS011;68451;49.510;6.026;2023-08-01T08:25:05;6.13;;;2.75;;
79052;SDS011;68451;49.510;6.026;2023-08-01T08:27:31;2.90;;;2.30;;
79052;SDS011;68451;49.510;6.026;2023-08-01T08:29:56;4.20;;;2.45;;
79052;SDS011;68451;49.510;6.026;2023-08-01T08:32:22;4.68;;;2.85;;
79052;SDS011;68451;49.510;6.026;2023-08-01T08:34:47;7.90;;;3.97;;
79052;SDS011;68451;49.510;6.026;2023-08-01T08:37:13;11.88;;;9.45;;
79052;SDS011;68451;49.510;6.026;2023-08-01T08:39:38;14.85;;;5.70;;
79052;SDS011;68451;49.510;6.026;2023-08-01T08:42:04;7.13;;;4.18;;
79052;SDS011;68451;49.510;6.026;2023-08-01T08:44:30;6.22;;;3.30;;
79052;SDS011;68451;49.510;6.026;2023-08-01T08:47:00;6.93;;;3.53;;
79052;SDS011;68451;49.510;6.026;2023-08-01T08:49:30;5.43;;;2.85;;
79052;SDS011;68451;49.510;6.026;2023-08-01T08:51:57;4.55;;;2.67;;
79052;SDS011;68451;49.510;6.026;2023-08-01T08:54:23;5.88;;;2.95;;
79052;SDS011;68451;49.510;6.026;2023-08-01T08:56:49;4.10;;;2.40;;
79052;SDS011;68451;49.510;6.026;2023-08-01T08:59:15;4.28;;;2.67;;
79052;SDS011;68451;49.510;6.026;2023-08-01T09:01:41;6.53;;;2.90;;
79052;SDS011;68451;49.510;6.026;2023-08-01T09:04:06;6.93;;;3.22;;
79052;SDS011;68451;49.510;6.026;2023-08-01T09:06:34;6.35;;;3.03;;
79052;SDS011;68451;49.510;6.026;2023-08-01T09:09:12;4.35;;;2.30;;
79052;SDS011;68451;49.510;6.026;2023-08-01T09:11:39;7.55;;;3.00;;
79052;SDS011;68451;49.510;6.026;2023-08-01T09:14:07;7.20;;;2.97;;
79052;SDS011;68451;49.510;6.026;2023-08-01T09:16:33;6.63;;;2.97;;
79052;SDS011;68451;49.510;6.026;2023-08-01T09:18:58;5.00;;;2.92;;
79052;SDS011;68451;49.510;6.026;2023-08-01T09:21:24;6.55;;;3.10;;
79052;SDS011;68451;49.510;6.026;2023-08-01T09:23:50;3.15;;;2.78;;
79052;SDS011;68451;49.510;6.026;2023-08-01T09:26:17;4.65;;;2.83;;
79052;SDS011;68451;49.510;6.026;2023-08-01T09:28:54;4.32;;;2.20;;
79052;SDS011;68451;49.510;6.026;2023-08-01T09:31:27;5.45;;;2.80;;
79052;SDS011;68451;49.510;6.026;2023-08-01T09:33:55;6.78;;;3.33;;
79052;SDS011;68451;49.510;6.026;2023-08-01T09:36:21;3.25;;;2.17;;
79052;SDS011;68451;49.510;6.026;2023-08-01T09:38:51;5.88;;;3.50;;
79052;SDS011;68451;49.510;6.026;2023-08-01T09:41:17;4.43;;;2.83;;
79052;SDS011;68451;49.510;6.026;2023-08-01T09:43:44;3.75;;;2.25;;
79052;SDS011;68451;49.510;6.026;2023-08-01T09:46:11;4.40;;;2.80;;
79052;SDS011;68451;49.510;6.026;2023-08-01T09:48:37;4.13;;;2.70;;
79052;SDS011;68451;49.510;6.026;2023-08-01T09:51:12;6.70;;;3.95;;
79052;SDS011;68451;49.510;6.026;2023-08-01T09:53:52;6.30;;;2.97;;
79052;SDS011;68451;49.510;6.026;2023-08-01T09:56:20;7.40;;;2.60;;
79052;SDS011;68451;49.510;6.026;2023-08-01T09:58:47;6.03;;;3.20;;
79052;SDS011;68451;49.510;6.026;2023-08-01T10:01:14;4.70;;;2.88;;
79052;SDS011;68451;49.510;6.026;2023-08-01T10:03:47;3.95;;;2.03;;
79052;SDS011;68451;49.510;6.026;2023-08-01T10:06:14;6.28;;;2.55;;
79052;SDS011;68451;49.510;6.026;2023-08-01T10:08:44;5.95;;;2.53;;
79052;SDS011;68451;49.510;6.026;2023-08-01T10:11:10;4.05;;;2.78;;
79052;SDS011;68451;49.510;6.026;2023-08-01T10:13:38;4.22;;;2.50;;
79052;SDS011;68451;49.510;6.026;2023-08-01T10:16:04;4.38;;;2.00;;
79052;SDS011;68451;49.510;6.026;2023-08-01T10:18:31;4.53;;;2.30;;
79052;SDS011;68451;49.510;6.026;2023-08-01T10:20:57;4.30;;;2.20;;
79052;SDS011;68451;49.510;6.026;2023-08-01T10:23:23;6.32;;;2.75;;
79052;SDS011;68451;49.510;6.026;2023-08-01T10:25:50;4.13;;;2.40;;
79052;SDS011;68451;49.510;6.026;2023-08-01T10:28:15;4.53;;;2.40;;
79052;SDS011;68451;49.510;6.026;2023-08-01T10:30:41;4.22;;;2.30;;
79052;SDS011;68451;49.510;6.026;2023-08-01T10:33:06;5.57;;;2.15;;
79052;SDS011;68451;49.510;6.026;2023-08-01T10:35:38;3.53;;;2.72;;
79052;SDS011;68451;49.510;6.026;2023-08-01T10:38:08;5.00;;;2.63;;
79052;SDS011;68451;49.510;6.026;2023-08-01T10:40:40;5.10;;;2.25;;
79052;SDS011;68451;49.510;6.026;2023-08-01T10:45:45;3.92;;;2.75;;
79052;SDS011;68451;49.510;6.026;2023-08-01T10:48:11;5.82;;;3.03;;
79052;SDS011;68451;49.510;6.026;2023-08-01T10:50:37;3.70;;;2.25;;
79052;SDS011;68451;49.510;6.026;2023-08-01T10:53:03;4.28;;;1.90;;
